createdAt,value
2022-09-18T00:01:33.684Z,98.10
2022-09-18T00:04:04.349Z,98.00
2022-09-18T00:06:36.218Z,98.00
2022-09-18T00:09:06.663Z,98.20
2022-09-18T00:11:37.558Z,98.00
2022-09-18T00:14:07.375Z,98.40
2022-09-18T00:16:35.931Z,98.10
2022-09-18T00:19:04.395Z,98.10
2022-09-18T00:21:32.801Z,98.20
2022-09-18T00:24:01.781Z,98.20
2022-09-18T00:26:29.887Z,98.20
2022-09-18T00:28:58.460Z,98.60
2022-09-18T00:31:31.649Z,98.40
2022-09-18T00:34:01.150Z,98.30
2022-09-18T00:36:29.914Z,98.30
2022-09-18T00:38:59.344Z,98.40
2022-09-18T00:41:33.444Z,98.60
2022-09-18T00:44:22.691Z,98.50
2022-09-18T00:46:51.055Z,98.60
2022-09-18T00:49:22.475Z,98.60
2022-09-18T00:51:53.804Z,98.70
2022-09-18T00:54:39.791Z,98.70
2022-09-18T00:57:18.578Z,98.70
2022-09-18T00:59:49.171Z,98.70
2022-09-18T01:02:17.099Z,98.70
2022-09-18T01:04:44.784Z,98.70
2022-09-18T01:07:53.007Z,98.70
2022-09-18T01:10:42.332Z,98.70
2022-09-18T01:13:12.620Z,98.70
2022-09-18T01:15:46.966Z,98.80
2022-09-18T01:18:44.557Z,98.70
2022-09-18T01:21:16.471Z,98.90
2022-09-18T01:24:08.642Z,99.00
2022-09-18T01:26:45.203Z,98.90
2022-09-18T01:29:42.992Z,98.90
2022-09-18T01:32:15.762Z,98.80
2022-09-18T01:35:14.070Z,98.90
2022-09-18T01:38:08.671Z,98.80
2022-09-18T01:41:03.467Z,98.80
2022-09-18T01:43:33.108Z,98.70
2022-09-18T01:46:07.083Z,98.80
2022-09-18T01:48:42.524Z,98.60
2022-09-18T01:51:20.503Z,98.60
2022-09-18T01:53:58.519Z,98.60
2022-09-18T01:56:36.408Z,98.70
2022-09-18T01:59:13.717Z,98.70
2022-09-18T02:01:52.402Z,98.90
2022-09-18T02:04:28.789Z,98.80
2022-09-18T02:07:17.647Z,98.80
2022-09-18T02:09:45.603Z,98.80
2022-09-18T02:12:20.907Z,98.80
2022-09-18T02:14:56.019Z,98.90
2022-09-18T02:17:51.042Z,98.90
2022-09-18T02:20:26.186Z,98.80
2022-09-18T02:22:58.173Z,98.80
2022-09-18T02:25:33.078Z,99.20
2022-09-18T02:28:02.171Z,98.90
2022-09-18T02:30:30.606Z,99.10
2022-09-18T02:33:00.223Z,99.10
2022-09-18T02:35:35.051Z,99.10
2022-09-18T02:38:38.041Z,99.20
2022-09-18T02:41:15.775Z,99.20
2022-09-18T02:43:50.068Z,99.50
2022-09-18T02:46:37.620Z,99.30
2022-09-18T02:49:14.675Z,99.30
2022-09-18T02:51:51.515Z,99.40
2022-09-18T02:54:59.792Z,99.50
2022-09-18T02:57:49.404Z,99.60
2022-09-18T03:00:18.763Z,99.70
2022-09-18T03:02:50.598Z,99.80
2022-09-18T03:05:30.273Z,99.90
2022-09-18T03:08:00.228Z,99.90
2022-09-18T03:10:29.817Z,99.90
2022-09-18T03:12:58.059Z,99.90
2022-09-18T03:15:25.546Z,99.90
2022-09-18T03:17:53.144Z,99.90
2022-09-18T03:20:20.729Z,99.90
2022-09-18T03:22:49.589Z,99.90
2022-09-18T03:25:17.681Z,99.90
2022-09-18T03:27:45.173Z,99.90
2022-09-18T03:30:18.332Z,99.90
2022-09-18T03:32:45.819Z,99.90
2022-09-18T03:35:14.229Z,99.90
2022-09-18T03:37:42.254Z,99.90
2022-09-18T03:40:11.775Z,99.90
2022-09-18T03:42:39.847Z,99.90
2022-09-18T03:45:09.044Z,99.90
2022-09-18T03:47:36.902Z,99.90
2022-09-18T03:50:06.675Z,99.90
2022-09-18T03:52:35.715Z,99.90
2022-09-18T03:55:13.484Z,99.90
2022-09-18T03:57:59.287Z,99.90
2022-09-18T04:00:49.375Z,99.90
2022-09-18T04:03:25.587Z,99.90
2022-09-18T04:06:22.248Z,99.90
2022-09-18T04:09:27.898Z,99.90
2022-09-18T04:11:55.639Z,99.90
2022-09-18T04:14:27.948Z,99.90
2022-09-18T04:16:57.785Z,99.90
2022-09-18T04:19:25.523Z,99.90
2022-09-18T04:21:53.144Z,99.90
2022-09-18T04:24:22.302Z,99.90
2022-09-18T04:26:50.078Z,99.90
2022-09-18T04:29:21.504Z,99.90
2022-09-18T04:31:50.973Z,99.90
2022-09-18T04:34:21.097Z,99.90
2022-09-18T04:36:48.900Z,99.90
2022-09-18T04:39:16.791Z,99.90
2022-09-18T04:41:45.931Z,99.90
2022-09-18T04:44:14.721Z,99.90
2022-09-18T04:46:43.527Z,99.90
2022-09-18T04:49:11.443Z,99.90
2022-09-18T04:51:39.364Z,99.90
2022-09-18T04:54:06.765Z,99.90
2022-09-18T04:56:37.443Z,99.90
2022-09-18T04:59:04.916Z,99.90
2022-09-18T05:01:34.554Z,99.90
2022-09-18T05:04:08.458Z,99.90
2022-09-18T05:06:48.058Z,99.90
2022-09-18T05:09:17.410Z,99.90
2022-09-18T05:11:44.854Z,99.90
2022-09-18T05:14:12.846Z,99.90
2022-09-18T05:16:45.412Z,99.90
2022-09-18T05:19:38.914Z,99.90
2022-09-18T05:22:12.567Z,99.90
2022-09-18T05:24:45.156Z,99.90
2022-09-18T05:27:14.292Z,99.90
2022-09-18T05:29:41.799Z,99.90
2022-09-18T05:32:13.920Z,99.90
2022-09-18T05:34:42.910Z,99.90
2022-09-18T05:37:10.599Z,99.90
2022-09-18T05:39:40.203Z,99.90
2022-09-18T05:42:07.760Z,99.90
2022-09-18T05:44:35.312Z,99.90
2022-09-18T05:47:06.911Z,99.90
2022-09-18T05:49:34.495Z,99.90
2022-09-18T05:52:02.109Z,99.90
2022-09-18T05:54:30.992Z,99.90
2022-09-18T05:56:59.048Z,99.90
2022-09-18T05:59:26.559Z,99.90
2022-09-18T06:01:56.705Z,99.90
2022-09-18T06:05:02.700Z,99.90
2022-09-18T06:07:31.115Z,99.90
2022-09-18T06:09:58.975Z,99.90
2022-09-18T06:12:27.541Z,99.90
2022-09-18T06:14:55.019Z,99.90
2022-09-18T06:17:22.638Z,99.90
2022-09-18T06:19:52.988Z,99.90
2022-09-18T06:22:20.968Z,99.90
2022-09-18T06:24:48.646Z,99.90
2022-09-18T06:27:19.116Z,99.90
2022-09-18T06:29:47.234Z,99.90
2022-09-18T06:32:23.904Z,99.90
2022-09-18T06:34:51.451Z,99.90
2022-09-18T06:37:19.196Z,99.90
2022-09-18T06:40:00.509Z,99.90
2022-09-18T06:42:59.427Z,99.90
2022-09-18T06:45:37.976Z,99.90
2022-09-18T06:48:06.507Z,99.90
2022-09-18T06:50:36.812Z,99.90
2022-09-18T06:53:11.521Z,99.90
2022-09-18T06:55:48.933Z,99.90
2022-09-18T06:58:18.273Z,99.90
2022-09-18T07:00:46.567Z,99.90
2022-09-18T07:03:15.131Z,99.90
2022-09-18T07:06:12.405Z,99.90
2022-09-18T07:08:44.739Z,99.90
2022-09-18T07:11:19.159Z,99.90
2022-09-18T07:13:47.718Z,99.90
2022-09-18T07:16:15.303Z,99.90
2022-09-18T07:18:43.874Z,99.90
2022-09-18T07:21:13.550Z,99.90
2022-09-18T07:23:43.772Z,99.90
2022-09-18T07:26:12.356Z,99.90
2022-09-18T07:28:39.887Z,99.90
2022-09-18T07:31:28.320Z,99.90
2022-09-18T07:33:56.836Z,99.90
2022-09-18T07:36:27.982Z,99.90
2022-09-18T07:38:55.524Z,99.90
2022-09-18T07:41:26.718Z,99.90
2022-09-18T07:43:54.479Z,99.90
2022-09-18T07:46:22.290Z,99.90
2022-09-18T07:48:52.828Z,99.90
2022-09-18T07:51:27.410Z,99.90
2022-09-18T07:53:56.847Z,99.90
2022-09-18T07:56:47.268Z,99.90
2022-09-18T07:59:18.187Z,99.90
2022-09-18T08:01:48.299Z,99.90
2022-09-18T08:04:17.015Z,99.90
2022-09-18T08:07:17.013Z,99.90
2022-09-18T08:10:08.232Z,99.90
2022-09-18T08:12:55.984Z,99.90
2022-09-18T08:15:44.850Z,99.90
2022-09-18T08:18:31.172Z,99.90
2022-09-18T08:21:10.649Z,99.90
2022-09-18T08:23:50.551Z,99.90
2022-09-18T08:26:22.181Z,99.90
2022-09-18T08:28:51.769Z,99.90
2022-09-18T08:31:19.518Z,99.90
2022-09-18T08:33:47.118Z,99.90
2022-09-18T08:36:15.303Z,99.90
2022-09-18T08:38:55.894Z,99.90
2022-09-18T08:42:03.075Z,99.90
2022-09-18T08:45:02.512Z,99.90
2022-09-18T08:48:06.163Z,99.90
2022-09-18T08:50:42.811Z,99.90
2022-09-18T08:53:40.051Z,99.90
2022-09-18T08:56:34.955Z,99.90
2022-09-18T08:59:32.146Z,99.90
2022-09-18T09:02:14.746Z,99.90
2022-09-18T09:04:43.160Z,99.90
2022-09-18T09:07:32.049Z,99.80
2022-09-18T09:10:14.419Z,99.70
2022-09-18T09:13:09.419Z,99.50
2022-09-18T09:16:04.809Z,99.50
2022-09-18T09:18:59.194Z,99.40
2022-09-18T09:21:45.600Z,99.30
2022-09-18T09:24:33.358Z,99.40
2022-09-18T09:27:24.421Z,99.90
2022-09-18T09:30:20.970Z,99.20
2022-09-18T09:33:27.975Z,99.30
2022-09-18T09:36:21.826Z,98.90
2022-09-18T09:39:19.049Z,98.80
2022-09-18T09:42:09.470Z,98.50
2022-09-18T09:44:54.218Z,98.10
2022-09-18T09:47:58.954Z,98.10
2022-09-18T09:50:53.746Z,97.50
2022-09-18T09:53:25.107Z,97.40
2022-09-18T09:56:03.117Z,97.20
2022-09-18T09:58:52.514Z,96.60
2022-09-18T10:01:39.530Z,96.60
2022-09-18T10:04:08.333Z,95.90
2022-09-18T10:06:49.697Z,95.60
2022-09-18T10:09:33.412Z,95.60
2022-09-18T10:12:16.641Z,95.50
2022-09-18T10:14:49.525Z,94.70
2022-09-18T10:17:20.186Z,94.00
2022-09-18T10:19:49.384Z,94.10
2022-09-18T10:22:23.032Z,94.30
2022-09-18T10:25:03.562Z,93.30
2022-09-18T10:27:32.032Z,93.60
2022-09-18T10:30:00.005Z,93.50
2022-09-18T10:32:44.016Z,92.80
2022-09-18T10:35:43.429Z,93.00
2022-09-18T10:38:34.868Z,93.10
2022-09-18T10:41:37.930Z,92.30
2022-09-18T10:44:14.397Z,92.10
2022-09-18T10:46:59.171Z,91.50
2022-09-18T10:49:52.323Z,91.90
2022-09-18T10:52:27.738Z,91.50
2022-09-18T10:55:07.134Z,90.90
2022-09-18T10:57:37.010Z,90.80
2022-09-18T11:00:13.710Z,90.40
2022-09-18T11:02:49.654Z,90.30
2022-09-18T11:05:31.983Z,90.70
2022-09-18T11:08:17.608Z,90.00
2022-09-18T11:10:50.653Z,88.10
2022-09-18T11:13:28.824Z,90.50
2022-09-18T11:16:02.782Z,87.70
2022-09-18T11:18:32.178Z,88.00
2022-09-18T11:21:04.346Z,89.20
2022-09-18T11:23:35.499Z,88.40
2022-09-18T11:26:20.115Z,88.30
2022-09-18T11:29:04.695Z,87.40
2022-09-18T11:31:45.779Z,87.70
2022-09-18T11:34:21.806Z,87.70
2022-09-18T11:36:52.287Z,88.10
2022-09-18T11:39:26.239Z,87.10
2022-09-18T11:41:55.305Z,87.30
2022-09-18T11:44:27.606Z,87.10
2022-09-18T11:47:09.466Z,86.50
2022-09-18T11:49:43.107Z,86.90
2022-09-18T11:52:30.949Z,86.70
2022-09-18T11:55:32.788Z,86.50
2022-09-18T11:58:23.055Z,86.90
2022-09-18T12:01:23.527Z,83.90
2022-09-18T12:04:17.750Z,83.90
2022-09-18T12:06:49.398Z,84.40
2022-09-18T12:09:27.601Z,84.00
2022-09-18T12:12:14.905Z,83.40
2022-09-18T12:15:10.398Z,83.30
2022-09-18T12:17:52.881Z,83.10
2022-09-18T12:20:23.237Z,83.20
2022-09-18T12:22:54.982Z,82.60
2022-09-18T12:25:45.231Z,83.10
2022-09-18T12:28:39.169Z,82.70
2022-09-18T12:31:21.885Z,83.10
2022-09-18T12:34:18.986Z,81.90
2022-09-18T12:36:46.437Z,82.40
2022-09-18T12:39:54.924Z,81.40
2022-09-18T12:42:47.873Z,81.90
2022-09-18T12:45:40.492Z,80.40
2022-09-18T12:48:26.491Z,79.00
2022-09-18T12:51:32.688Z,78.70
2022-09-18T12:54:15.257Z,78.90
2022-09-18T12:56:48.524Z,79.40
2022-09-18T12:59:48.158Z,83.80
2022-09-18T13:02:28.732Z,80.20
2022-09-18T13:05:02.570Z,79.70
2022-09-18T13:07:43.218Z,79.70
2022-09-18T13:10:13.864Z,78.90
2022-09-18T13:12:50.081Z,80.00
2022-09-18T13:15:23.327Z,80.20
2022-09-18T13:17:57.159Z,80.70
2022-09-18T13:20:48.419Z,81.00
2022-09-18T13:23:37.654Z,80.40
2022-09-18T13:26:10.388Z,80.70
2022-09-18T13:28:41.499Z,79.90
2022-09-18T13:31:15.193Z,79.70
2022-09-18T13:33:59.913Z,80.10
2022-09-18T13:36:36.781Z,80.10
2022-09-18T13:39:19.359Z,80.50
2022-09-18T13:41:50.191Z,80.70
2022-09-18T13:44:25.271Z,80.90
2022-09-18T13:46:56.170Z,81.70
2022-09-18T13:49:32.060Z,81.90
2022-09-18T13:52:27.848Z,82.30
2022-09-18T13:55:11.510Z,82.20
2022-09-18T13:57:40.312Z,82.60
2022-09-18T14:00:23.138Z,83.00
2022-09-18T14:02:51.955Z,83.50
2022-09-18T14:05:29.879Z,83.80
2022-09-18T14:08:06.610Z,83.70
2022-09-18T14:10:59.453Z,83.70
2022-09-18T14:13:47.492Z,84.10
2022-09-18T14:16:21.577Z,84.20
2022-09-18T14:18:49.046Z,83.90
2022-09-18T14:21:19.795Z,84.20
2022-09-18T14:23:47.275Z,84.10
2022-09-18T14:26:30.203Z,83.50
2022-09-18T14:29:16.494Z,82.10
2022-09-18T14:31:48.997Z,81.80
2022-09-18T14:34:38.980Z,82.10
2022-09-18T14:37:33.008Z,82.70
2022-09-18T14:40:01.100Z,82.80
2022-09-18T14:42:32.460Z,83.10
2022-09-18T14:45:06.340Z,83.00
2022-09-18T14:47:34.513Z,83.20
2022-09-18T14:50:02.326Z,83.60
2022-09-18T14:52:32.035Z,83.30
2022-09-18T14:55:10.506Z,84.00
2022-09-18T14:57:56.778Z,84.00
2022-09-18T15:00:27.452Z,84.10
2022-09-18T15:02:58.429Z,84.10
2022-09-18T15:05:28.063Z,84.40
2022-09-18T15:08:13.921Z,83.80
2022-09-18T15:10:47.900Z,83.60
2022-09-18T15:13:16.867Z,83.70
2022-09-18T15:15:48.795Z,83.60
2022-09-18T15:18:27.407Z,83.50
2022-09-18T15:21:03.104Z,83.30
2022-09-18T15:23:34.658Z,83.50
2022-09-18T15:26:07.836Z,83.40
2022-09-18T15:28:37.695Z,83.50
2022-09-18T15:31:08.928Z,83.80
2022-09-18T15:33:48.458Z,83.80
2022-09-18T15:36:30.560Z,83.90
2022-09-18T15:39:00.273Z,84.00
2022-09-18T15:41:41.366Z,84.10
2022-09-18T15:44:39.499Z,84.00
2022-09-18T15:47:25.608Z,83.80
2022-09-18T15:49:53.313Z,83.30
2022-09-18T15:52:37.300Z,83.40
2022-09-18T15:55:18.376Z,83.40
2022-09-18T15:57:55.046Z,83.30
2022-09-18T16:00:32.868Z,83.60
2022-09-18T16:03:08.545Z,83.80
2022-09-18T16:05:38.067Z,83.80
2022-09-18T16:08:17.796Z,84.80
2022-09-18T16:10:49.016Z,84.60
2022-09-18T16:13:16.550Z,84.50
2022-09-18T16:15:47.679Z,84.90
2022-09-18T16:18:29.150Z,84.50
2022-09-18T16:21:04.280Z,85.00
2022-09-18T16:23:35.159Z,85.30
2022-09-18T16:26:15.315Z,85.40
2022-09-18T16:29:03.775Z,85.70
2022-09-18T16:31:34.342Z,85.90
2022-09-18T16:34:21.642Z,86.10
2022-09-18T16:36:49.958Z,86.40
2022-09-18T16:39:23.764Z,86.50
2022-09-18T16:41:52.386Z,86.50
2022-09-18T16:44:20.042Z,86.90
2022-09-18T16:46:52.249Z,87.10
2022-09-18T16:49:42.689Z,87.20
2022-09-18T16:52:11.648Z,87.00
2022-09-18T16:54:39.104Z,87.20
2022-09-18T16:57:12.158Z,87.40
2022-09-18T16:59:43.190Z,87.40
2022-09-18T17:02:14.621Z,87.40
2022-09-18T17:04:42.251Z,87.70
2022-09-18T17:07:09.908Z,88.10
2022-09-18T17:09:37.472Z,88.50
2022-09-18T17:12:05.466Z,88.80
2022-09-18T17:14:35.830Z,88.90
2022-09-18T17:17:06.388Z,89.00
2022-09-18T17:19:34.271Z,90.10
2022-09-18T17:22:02.100Z,90.00
2022-09-18T17:24:29.659Z,90.20
2022-09-18T17:26:57.226Z,90.30
2022-09-18T17:29:24.763Z,90.20
2022-09-18T17:31:53.218Z,90.00
2022-09-18T17:34:22.071Z,90.00
2022-09-18T17:36:50.416Z,90.40
2022-09-18T17:39:17.953Z,90.40
2022-09-18T17:41:45.971Z,90.30
2022-09-18T17:44:15.238Z,90.40
2022-09-18T17:46:42.813Z,90.50
2022-09-18T17:49:10.371Z,90.50
2022-09-18T17:51:38.077Z,90.60
2022-09-18T17:54:10.334Z,90.60
2022-09-18T17:56:37.943Z,90.70
2022-09-18T17:59:10.982Z,90.80
2022-09-18T18:01:46.097Z,91.10
2022-09-18T18:04:14.434Z,90.80
2022-09-18T18:06:42.731Z,90.90
2022-09-18T18:09:12.753Z,91.00
2022-09-18T18:11:40.602Z,91.30
2022-09-18T18:14:08.250Z,91.70
2022-09-18T18:16:41.302Z,92.30
2022-09-18T18:19:12.255Z,92.50
2022-09-18T18:21:41.939Z,92.70
2022-09-18T18:24:14.937Z,92.90
2022-09-18T18:26:43.589Z,93.00
2022-09-18T18:29:14.091Z,93.20
2022-09-18T18:31:43.205Z,93.00
2022-09-18T18:34:12.212Z,93.00
2022-09-18T18:36:42.003Z,93.40
2022-09-18T18:39:12.836Z,93.60
2022-09-18T18:41:41.069Z,93.50
2022-09-18T18:44:09.998Z,93.50
2022-09-18T18:46:37.772Z,93.50
2022-09-18T18:49:09.311Z,93.40
2022-09-18T18:51:47.438Z,93.30
2022-09-18T18:54:18.609Z,93.20
2022-09-18T18:59:17.432Z,92.90
2022-09-18T19:01:45.781Z,93.10
2022-09-18T19:04:15.989Z,93.20
2022-09-18T19:06:44.595Z,93.10
2022-09-18T19:09:24.400Z,93.10
2022-09-18T19:11:52.838Z,93.10
2022-09-18T19:14:28.767Z,93.20
2022-09-18T19:16:59.366Z,93.20
2022-09-18T19:19:28.365Z,93.20
2022-09-18T19:21:59.738Z,93.20
2022-09-18T19:24:28.226Z,93.20
2022-09-18T19:26:55.879Z,93.30
2022-09-18T19:29:25.232Z,93.50
2022-09-18T19:31:53.241Z,93.70
2022-09-18T19:34:22.202Z,94.10
2022-09-18T19:36:50.787Z,94.00
2022-09-18T19:39:21.232Z,94.20
2022-09-18T19:41:55.298Z,94.40
2022-09-18T19:44:35.262Z,94.60
2022-09-18T19:47:06.341Z,94.80
2022-09-18T19:49:37.791Z,95.10
2022-09-18T19:52:20.799Z,95.30
2022-09-18T19:54:50.818Z,95.50
2022-09-18T19:57:19.583Z,95.70
2022-09-18T19:59:47.145Z,95.90
2022-09-18T20:02:17.803Z,96.10
2022-09-18T20:04:45.383Z,96.30
2022-09-18T20:07:13.634Z,96.50
2022-09-18T20:09:41.122Z,96.70
2022-09-18T20:12:09.387Z,97.20
2022-09-18T20:14:36.879Z,97.10
2022-09-18T20:17:04.466Z,97.30
2022-09-18T20:19:31.949Z,97.40
2022-09-18T20:22:02.138Z,97.10
2022-09-18T20:24:31.241Z,97.80
2022-09-18T20:26:59.716Z,98.00
2022-09-18T20:29:27.445Z,98.00
2022-09-18T20:31:55.160Z,98.20
2022-09-18T20:34:24.758Z,98.40
2022-09-18T20:36:53.626Z,98.50
2022-09-18T20:39:21.635Z,98.70
2022-09-18T20:41:51.090Z,99.00
2022-09-18T20:44:19.043Z,99.30
2022-09-18T20:46:46.651Z,99.40
2022-09-18T20:49:17.381Z,99.50
2022-09-18T20:51:46.002Z,99.60
2022-09-18T20:54:14.645Z,99.70
2022-09-18T20:56:44.479Z,99.80
2022-09-18T20:59:15.703Z,99.90
2022-09-18T21:01:44.672Z,99.90
2022-09-18T21:04:17.126Z,99.90
2022-09-18T21:06:55.861Z,99.90
2022-09-18T21:09:26.376Z,99.90
2022-09-18T21:11:56.746Z,99.90
2022-09-18T21:14:25.763Z,99.90
2022-09-18T21:16:53.818Z,99.90
2022-09-18T21:19:21.595Z,99.90
2022-09-18T21:21:49.174Z,99.90
2022-09-18T21:24:17.411Z,99.90
2022-09-18T21:26:47.818Z,99.90
2022-09-18T21:29:21.411Z,99.90
2022-09-18T21:31:54.353Z,99.90
2022-09-18T21:34:28.149Z,99.90
2022-09-18T21:36:58.737Z,99.90
2022-09-18T21:39:30.597Z,99.90
2022-09-18T21:41:59.773Z,99.90
2022-09-18T21:44:29.529Z,99.90
2022-09-18T21:46:59.507Z,99.90
2022-09-18T21:49:29.018Z,99.90
2022-09-18T21:52:03.582Z,99.90
2022-09-18T21:54:31.970Z,99.90
2022-09-18T21:57:00.092Z,99.90
2022-09-18T21:59:30.214Z,99.90
2022-09-18T22:01:58.561Z,99.90
2022-09-18T22:04:29.173Z,99.90
2022-09-18T22:06:59.540Z,99.90
2022-09-18T22:09:38.276Z,99.90
2022-09-18T22:12:06.789Z,99.90
2022-09-18T22:14:35.790Z,99.90
2022-09-18T22:17:05.849Z,99.90
2022-09-18T22:19:40.548Z,99.90
2022-09-18T22:22:12.245Z,99.90
2022-09-18T22:24:40.006Z,99.90
2022-09-18T22:27:08.652Z,99.90
2022-09-18T22:29:38.385Z,99.90
2022-09-18T22:32:06.386Z,99.90
2022-09-18T22:34:36.868Z,99.90
2022-09-18T22:37:04.886Z,99.90
2022-09-18T22:42:01.829Z,99.90
2022-09-18T22:44:31.091Z,99.90
2022-09-18T22:49:26.823Z,99.90
2022-09-18T22:51:54.593Z,99.90
2022-09-18T22:54:24.714Z,99.90
2022-09-18T22:56:53.265Z,99.90
2022-09-18T22:59:23.362Z,99.90
2022-09-18T23:02:00.046Z,99.90
2022-09-18T23:04:29.846Z,99.90
2022-09-18T23:06:59.162Z,99.90
2022-09-18T23:09:27.845Z,99.90
2022-09-18T23:11:55.918Z,99.90
2022-09-18T23:14:26.447Z,99.90
2022-09-18T23:16:54.667Z,99.90
2022-09-18T23:19:23.557Z,99.90
2022-09-18T23:21:53.657Z,99.90
2022-09-18T23:24:22.380Z,99.90
2022-09-18T23:26:52.100Z,99.90
2022-09-18T23:29:21.989Z,99.90
2022-09-18T23:31:53.089Z,99.90
2022-09-18T23:34:23.721Z,99.90
2022-09-18T23:36:54.143Z,99.90
2022-09-18T23:39:28.657Z,99.90
2022-09-18T23:41:58.714Z,99.90
2022-09-18T23:44:28.586Z,99.90
2022-09-18T23:46:56.239Z,99.90
2022-09-18T23:49:23.960Z,99.90
2022-09-18T23:51:53.997Z,99.90
2022-09-18T23:54:24.444Z,99.90
2022-09-18T23:56:53.125Z,99.90
2022-09-18T23:59:23.257Z,99.90
